sensor_id;sensor_type;location;lat;lon;timestamp;P1;durP1;ratioP1;P2;durP2;ratioP2
66143;SDS011;52947;50.842;6.084;2022-12-04T00:01:10;28.33;;;14.60;;
66143;SDS011;52947;50.842;6.084;2022-12-04T00:03:39;27.20;;;13.63;;
66143;SDS011;52947;50.842;6.084;2022-12-04T00:06:08;27.98;;;13.73;;
66143;SDS011;52947;50.842;6.084;2022-12-04T00:08:37;25.38;;;13.63;;
66143;SDS011;52947;50.842;6.084;2022-12-04T00:11:07;27.80;;;14.40;;
66143;SDS011;52947;50.842;6.084;2022-12-04T00:13:36;29.80;;;13.95;;
66143;SDS011;52947;50.842;6.084;2022-12-04T00:16:05;26.13;;;12.73;;
66143;SDS011;52947;50.842;6.084;2022-12-04T00:18:34;26.77;;;14.25;;
66143;SDS011;52947;50.842;6.084;2022-12-04T00:21:02;27.10;;;13.25;;
66143;SDS011;52947;50.842;6.084;2022-12-04T00:23:31;29.60;;;14.57;;
66143;SDS011;52947;50.842;6.084;2022-12-04T00:26:00;31.13;;;13.85;;
66143;SDS011;52947;50.842;6.084;2022-12-04T00:28:30;27.33;;;12.27;;
66143;SDS011;52947;50.842;6.084;2022-12-04T00:30:58;28.67;;;15.10;;
66143;SDS011;52947;50.842;6.084;2022-12-04T00:33:26;29.10;;;14.43;;
66143;SDS011;52947;50.842;6.084;2022-12-04T00:35:57;26.85;;;13.25;;
66143;SDS011;52947;50.842;6.084;2022-12-04T00:38:25;28.85;;;13.55;;
66143;SDS011;52947;50.842;6.084;2022-12-04T00:40:54;29.37;;;13.77;;
66143;SDS011;52947;50.842;6.084;2022-12-04T00:43:22;28.73;;;13.15;;
66143;SDS011;52947;50.842;6.084;2022-12-04T00:45:51;25.38;;;12.25;;
66143;SDS011;52947;50.842;6.084;2022-12-04T00:48:19;28.55;;;13.50;;
66143;SDS011;52947;50.842;6.084;2022-12-04T00:50:47;30.48;;;14.25;;
66143;SDS011;52947;50.842;6.084;2022-12-04T00:53:15;32.38;;;13.00;;
66143;SDS011;52947;50.842;6.084;2022-12-04T00:55:43;29.45;;;14.77;;
66143;SDS011;52947;50.842;6.084;2022-12-04T00:58:11;28.17;;;13.30;;
66143;SDS011;52947;50.842;6.084;2022-12-04T01:00:40;28.92;;;13.73;;
66143;SDS011;52947;50.842;6.084;2022-12-04T01:03:10;31.83;;;13.55;;
66143;SDS011;52947;50.842;6.084;2022-12-04T01:08:06;29.58;;;13.48;;
66143;SDS011;52947;50.842;6.084;2022-12-04T01:10:36;33.30;;;15.13;;
66143;SDS011;52947;50.842;6.084;2022-12-04T01:13:04;34.20;;;13.80;;
66143;SDS011;52947;50.842;6.084;2022-12-04T01:15:32;27.48;;;13.13;;
66143;SDS011;52947;50.842;6.084;2022-12-04T01:18:04;29.17;;;15.55;;
66143;SDS011;52947;50.842;6.084;2022-12-04T01:20:33;29.42;;;14.02;;
66143;SDS011;52947;50.842;6.084;2022-12-04T01:23:01;34.22;;;14.68;;
66143;SDS011;52947;50.842;6.084;2022-12-04T01:25:29;39.63;;;16.40;;
66143;SDS011;52947;50.842;6.084;2022-12-04T01:27:56;26.90;;;13.27;;
66143;SDS011;52947;50.842;6.084;2022-12-04T01:30:24;32.85;;;15.32;;
66143;SDS011;52947;50.842;6.084;2022-12-04T01:32:52;35.45;;;14.73;;
66143;SDS011;52947;50.842;6.084;2022-12-04T01:35:20;31.48;;;15.25;;
66143;SDS011;52947;50.842;6.084;2022-12-04T01:37:49;33.17;;;14.50;;
66143;SDS011;52947;50.842;6.084;2022-12-04T01:40:17;30.60;;;15.40;;
66143;SDS011;52947;50.842;6.084;2022-12-04T01:42:44;30.17;;;14.55;;
66143;SDS011;52947;50.842;6.084;2022-12-04T01:48:08;31.85;;;14.85;;
66143;SDS011;52947;50.842;6.084;2022-12-04T01:50:41;31.20;;;13.90;;
66143;SDS011;52947;50.842;6.084;2022-12-04T01:53:11;35.25;;;16.55;;
66143;SDS011;52947;50.842;6.084;2022-12-04T01:55:40;32.28;;;14.60;;
66143;SDS011;52947;50.842;6.084;2022-12-04T01:58:09;26.88;;;13.95;;
66143;SDS011;52947;50.842;6.084;2022-12-04T02:00:38;35.88;;;17.65;;
66143;SDS011;52947;50.842;6.084;2022-12-04T02:03:06;29.98;;;14.23;;
66143;SDS011;52947;50.842;6.084;2022-12-04T02:05:34;30.50;;;15.35;;
66143;SDS011;52947;50.842;6.084;2022-12-04T02:08:02;30.85;;;14.70;;
66143;SDS011;52947;50.842;6.084;2022-12-04T02:10:35;32.20;;;16.88;;
66143;SDS011;52947;50.842;6.084;2022-12-04T02:13:14;26.30;;;13.77;;
66143;SDS011;52947;50.842;6.084;2022-12-04T02:15:47;29.40;;;14.98;;
66143;SDS011;52947;50.842;6.084;2022-12-04T02:18:21;31.67;;;14.38;;
66143;SDS011;52947;50.842;6.084;2022-12-04T02:20:56;33.55;;;15.30;;
66143;SDS011;52947;50.842;6.084;2022-12-04T02:26:37;28.25;;;13.65;;
66143;SDS011;52947;50.842;6.084;2022-12-04T02:29:11;27.52;;;12.65;;
66143;SDS011;52947;50.842;6.084;2022-12-04T02:31:49;24.40;;;12.75;;
66143;SDS011;52947;50.842;6.084;2022-12-04T02:34:22;29.75;;;12.63;;
66143;SDS011;52947;50.842;6.084;2022-12-04T02:36:55;27.13;;;13.35;;
66143;SDS011;52947;50.842;6.084;2022-12-04T02:39:28;29.13;;;14.20;;
66143;SDS011;52947;50.842;6.084;2022-12-04T02:42:02;29.83;;;14.60;;
66143;SDS011;52947;50.842;6.084;2022-12-04T02:44:38;29.25;;;15.25;;
66143;SDS011;52947;50.842;6.084;2022-12-04T02:47:11;30.23;;;13.88;;
66143;SDS011;52947;50.842;6.084;2022-12-04T02:49:43;29.27;;;15.52;;
66143;SDS011;52947;50.842;6.084;2022-12-04T02:52:14;31.02;;;14.95;;
66143;SDS011;52947;50.842;6.084;2022-12-04T02:54:45;27.70;;;13.07;;
66143;SDS011;52947;50.842;6.084;2022-12-04T02:57:18;34.40;;;16.13;;
66143;SDS011;52947;50.842;6.084;2022-12-04T02:59:50;32.13;;;16.02;;
66143;SDS011;52947;50.842;6.084;2022-12-04T03:02:22;31.50;;;14.88;;
66143;SDS011;52947;50.842;6.084;2022-12-04T03:04:54;29.25;;;13.73;;
66143;SDS011;52947;50.842;6.084;2022-12-04T03:07:25;31.60;;;14.80;;
66143;SDS011;52947;50.842;6.084;2022-12-04T03:09:58;29.55;;;14.60;;
66143;SDS011;52947;50.842;6.084;2022-12-04T03:12:29;31.33;;;15.10;;
66143;SDS011;52947;50.842;6.084;2022-12-04T03:15:09;28.55;;;14.35;;
66143;SDS011;52947;50.842;6.084;2022-12-04T03:17:44;29.63;;;12.60;;
66143;SDS011;52947;50.842;6.084;2022-12-04T03:20:21;32.33;;;15.80;;
66143;SDS011;52947;50.842;6.084;2022-12-04T03:22:51;21.85;;;11.68;;
66143;SDS011;52947;50.842;6.084;2022-12-04T03:25:24;28.20;;;13.63;;
66143;SDS011;52947;50.842;6.084;2022-12-04T03:27:59;26.23;;;13.30;;
66143;SDS011;52947;50.842;6.084;2022-12-04T03:30:33;24.13;;;12.32;;
66143;SDS011;52947;50.842;6.084;2022-12-04T03:33:06;24.95;;;12.20;;
66143;SDS011;52947;50.842;6.084;2022-12-04T03:35:40;26.17;;;12.15;;
66143;SDS011;52947;50.842;6.084;2022-12-04T03:38:12;26.83;;;12.15;;
66143;SDS011;52947;50.842;6.084;2022-12-04T03:40:46;23.33;;;11.38;;
66143;SDS011;52947;50.842;6.084;2022-12-04T03:43:22;26.08;;;12.10;;
66143;SDS011;52947;50.842;6.084;2022-12-04T03:45:56;28.73;;;13.45;;
66143;SDS011;52947;50.842;6.084;2022-12-04T03:48:30;26.17;;;13.68;;
66143;SDS011;52947;50.842;6.084;2022-12-04T03:51:08;22.65;;;12.45;;
66143;SDS011;52947;50.842;6.084;2022-12-04T03:53:42;22.83;;;11.73;;
66143;SDS011;52947;50.842;6.084;2022-12-04T03:56:16;24.58;;;12.52;;
66143;SDS011;52947;50.842;6.084;2022-12-04T03:58:48;23.83;;;11.93;;
66143;SDS011;52947;50.842;6.084;2022-12-04T04:01:21;20.38;;;11.07;;
66143;SDS011;52947;50.842;6.084;2022-12-04T04:03:55;16.83;;;8.55;;
66143;SDS011;52947;50.842;6.084;2022-12-04T04:06:28;13.82;;;8.23;;
66143;SDS011;52947;50.842;6.084;2022-12-04T04:08:59;20.90;;;11.45;;
66143;SDS011;52947;50.842;6.084;2022-12-04T04:11:34;18.73;;;10.15;;
66143;SDS011;52947;50.842;6.084;2022-12-04T04:14:07;20.90;;;10.02;;
66143;SDS011;52947;50.842;6.084;2022-12-04T04:17:01;20.75;;;10.93;;
66143;SDS011;52947;50.842;6.084;2022-12-04T04:19:49;23.13;;;10.27;;
66143;SDS011;52947;50.842;6.084;2022-12-04T04:22:39;22.15;;;10.80;;
66143;SDS011;52947;50.842;6.084;2022-12-04T04:25:24;20.15;;;9.93;;
66143;SDS011;52947;50.842;6.084;2022-12-04T04:27:54;16.35;;;9.23;;
66143;SDS011;52947;50.842;6.084;2022-12-04T04:30:24;19.73;;;9.82;;
66143;SDS011;52947;50.842;6.084;2022-12-04T04:32:55;17.98;;;10.30;;
66143;SDS011;52947;50.842;6.084;2022-12-04T04:35:32;19.50;;;9.82;;
66143;SDS011;52947;50.842;6.084;2022-12-04T04:38:10;20.10;;;10.00;;
66143;SDS011;52947;50.842;6.084;2022-12-04T04:40:44;20.98;;;10.70;;
66143;SDS011;52947;50.842;6.084;2022-12-04T04:43:19;18.40;;;8.98;;
66143;SDS011;52947;50.842;6.084;2022-12-04T04:45:51;21.25;;;9.60;;
66143;SDS011;52947;50.842;6.084;2022-12-04T04:48:24;16.63;;;9.02;;
66143;SDS011;52947;50.842;6.084;2022-12-04T04:50:56;22.38;;;11.38;;
66143;SDS011;52947;50.842;6.084;2022-12-04T04:53:28;21.17;;;11.00;;
66143;SDS011;52947;50.842;6.084;2022-12-04T04:56:00;20.75;;;9.63;;
66143;SDS011;52947;50.842;6.084;2022-12-04T04:58:28;24.98;;;10.68;;
66143;SDS011;52947;50.842;6.084;2022-12-04T05:00:57;18.45;;;9.80;;
66143;SDS011;52947;50.842;6.084;2022-12-04T05:03:28;22.02;;;10.57;;
66143;SDS011;52947;50.842;6.084;2022-12-04T05:05:56;21.25;;;10.32;;
66143;SDS011;52947;50.842;6.084;2022-12-04T05:08:24;19.17;;;10.30;;
66143;SDS011;52947;50.842;6.084;2022-12-04T05:10:52;18.77;;;9.77;;
66143;SDS011;52947;50.842;6.084;2022-12-04T05:13:20;18.10;;;10.18;;
66143;SDS011;52947;50.842;6.084;2022-12-04T05:15:54;22.08;;;11.50;;
66143;SDS011;52947;50.842;6.084;2022-12-04T05:18:23;19.98;;;10.25;;
66143;SDS011;52947;50.842;6.084;2022-12-04T05:20:53;17.25;;;9.52;;
66143;SDS011;52947;50.842;6.084;2022-12-04T05:23:20;19.27;;;10.35;;
66143;SDS011;52947;50.842;6.084;2022-12-04T05:25:48;22.55;;;10.55;;
66143;SDS011;52947;50.842;6.084;2022-12-04T05:28:16;20.00;;;10.15;;
66143;SDS011;52947;50.842;6.084;2022-12-04T05:30:44;18.38;;;9.98;;
66143;SDS011;52947;50.842;6.084;2022-12-04T05:33:12;24.63;;;10.38;;
66143;SDS011;52947;50.842;6.084;2022-12-04T05:35:39;18.05;;;10.23;;
66143;SDS011;52947;50.842;6.084;2022-12-04T05:38:09;20.42;;;9.90;;
66143;SDS011;52947;50.842;6.084;2022-12-04T05:40:36;21.77;;;10.77;;
66143;SDS011;52947;50.842;6.084;2022-12-04T05:43:04;20.63;;;10.43;;
66143;SDS011;52947;50.842;6.084;2022-12-04T05:45:32;19.65;;;10.80;;
66143;SDS011;52947;50.842;6.084;2022-12-04T05:48:00;18.35;;;9.52;;
66143;SDS011;52947;50.842;6.084;2022-12-04T05:50:27;18.10;;;10.15;;
66143;SDS011;52947;50.842;6.084;2022-12-04T05:52:55;19.60;;;9.77;;
66143;SDS011;52947;50.842;6.084;2022-12-04T05:55:25;15.73;;;9.55;;
66143;SDS011;52947;50.842;6.084;2022-12-04T05:57:52;17.23;;;9.88;;
66143;SDS011;52947;50.842;6.084;2022-12-04T06:00:20;16.48;;;8.48;;
66143;SDS011;52947;50.842;6.084;2022-12-04T06:02:48;16.48;;;8.98;;
66143;SDS011;52947;50.842;6.084;2022-12-04T06:05:16;16.83;;;9.27;;
66143;SDS011;52947;50.842;6.084;2022-12-04T06:07:44;19.60;;;9.45;;
66143;SDS011;52947;50.842;6.084;2022-12-04T06:10:12;16.70;;;8.63;;
66143;SDS011;52947;50.842;6.084;2022-12-04T06:12:41;20.63;;;9.82;;
66143;SDS011;52947;50.842;6.084;2022-12-04T06:15:09;15.88;;;7.85;;
66143;SDS011;52947;50.842;6.084;2022-12-04T06:17:37;16.77;;;9.70;;
66143;SDS011;52947;50.842;6.084;2022-12-04T06:20:05;15.75;;;8.27;;
66143;SDS011;52947;50.842;6.084;2022-12-04T06:22:37;17.00;;;8.95;;
66143;SDS011;52947;50.842;6.084;2022-12-04T06:25:05;15.90;;;7.80;;
66143;SDS011;52947;50.842;6.084;2022-12-04T06:27:34;14.18;;;8.02;;
66143;SDS011;52947;50.842;6.084;2022-12-04T06:30:03;12.32;;;6.82;;
66143;SDS011;52947;50.842;6.084;2022-12-04T06:32:32;16.23;;;8.77;;
66143;SDS011;52947;50.842;6.084;2022-12-04T06:35:00;13.25;;;7.45;;
66143;SDS011;52947;50.842;6.084;2022-12-04T06:37:28;14.90;;;8.10;;
66143;SDS011;52947;50.842;6.084;2022-12-04T06:39:56;14.95;;;8.18;;
66143;SDS011;52947;50.842;6.084;2022-12-04T06:42:24;14.98;;;8.20;;
66143;SDS011;52947;50.842;6.084;2022-12-04T06:44:52;16.80;;;8.38;;
66143;SDS011;52947;50.842;6.084;2022-12-04T06:47:21;13.68;;;7.90;;
66143;SDS011;52947;50.842;6.084;2022-12-04T06:49:49;15.52;;;8.45;;
66143;SDS011;52947;50.842;6.084;2022-12-04T06:52:17;15.13;;;8.03;;
66143;SDS011;52947;50.842;6.084;2022-12-04T06:54:45;14.00;;;8.18;;
66143;SDS011;52947;50.842;6.084;2022-12-04T06:57:13;15.60;;;7.88;;
66143;SDS011;52947;50.842;6.084;2022-12-04T06:59:40;17.98;;;8.50;;
66143;SDS011;52947;50.842;6.084;2022-12-04T07:02:08;14.05;;;7.68;;
66143;SDS011;52947;50.842;6.084;2022-12-04T07:04:38;19.70;;;8.77;;
66143;SDS011;52947;50.842;6.084;2022-12-04T07:09:37;15.18;;;7.75;;
66143;SDS011;52947;50.842;6.084;2022-12-04T07:12:05;13.80;;;7.88;;
66143;SDS011;52947;50.842;6.084;2022-12-04T07:14:33;13.98;;;8.10;;
66143;SDS011;52947;50.842;6.084;2022-12-04T07:17:01;15.18;;;8.38;;
66143;SDS011;52947;50.842;6.084;2022-12-04T07:19:29;15.13;;;7.80;;
66143;SDS011;52947;50.842;6.084;2022-12-04T07:21:58;16.13;;;8.90;;
66143;SDS011;52947;50.842;6.084;2022-12-04T07:24:25;14.90;;;8.10;;
66143;SDS011;52947;50.842;6.084;2022-12-04T07:26:53;14.07;;;7.35;;
66143;SDS011;52947;50.842;6.084;2022-12-04T07:29:21;16.58;;;8.98;;
66143;SDS011;52947;50.842;6.084;2022-12-04T07:31:49;13.68;;;8.27;;
66143;SDS011;52947;50.842;6.084;2022-12-04T07:34:17;12.55;;;7.78;;
66143;SDS011;52947;50.842;6.084;2022-12-04T07:36:45;16.70;;;7.93;;
66143;SDS011;52947;50.842;6.084;2022-12-04T07:39:14;12.43;;;6.88;;
66143;SDS011;52947;50.842;6.084;2022-12-04T07:41:41;14.25;;;7.18;;
66143;SDS011;52947;50.842;6.084;2022-12-04T07:44:12;15.77;;;8.60;;
66143;SDS011;52947;50.842;6.084;2022-12-04T07:46:40;15.95;;;8.32;;
66143;SDS011;52947;50.842;6.084;2022-12-04T07:49:09;14.60;;;8.13;;
66143;SDS011;52947;50.842;6.084;2022-12-04T07:51:38;11.48;;;7.00;;
66143;SDS011;52947;50.842;6.084;2022-12-04T07:54:05;15.88;;;9.05;;
66143;SDS011;52947;50.842;6.084;2022-12-04T07:56:35;13.90;;;8.05;;
66143;SDS011;52947;50.842;6.084;2022-12-04T07:59:03;15.55;;;9.40;;
66143;SDS011;52947;50.842;6.084;2022-12-04T08:01:31;16.13;;;9.60;;
66143;SDS011;52947;50.842;6.084;2022-12-04T08:03:59;13.70;;;7.93;;
66143;SDS011;52947;50.842;6.084;2022-12-04T08:06:28;16.38;;;9.23;;
66143;SDS011;52947;50.842;6.084;2022-12-04T08:09:02;16.83;;;8.70;;
66143;SDS011;52947;50.842;6.084;2022-12-04T08:11:37;15.10;;;7.65;;
66143;SDS011;52947;50.842;6.084;2022-12-04T08:16:34;14.23;;;8.82;;
66143;SDS011;52947;50.842;6.084;2022-12-04T08:19:02;18.02;;;9.43;;
66143;SDS011;52947;50.842;6.084;2022-12-04T08:21:30;16.17;;;8.75;;
66143;SDS011;52947;50.842;6.084;2022-12-04T08:23:59;14.80;;;9.10;;
66143;SDS011;52947;50.842;6.084;2022-12-04T08:26:28;14.30;;;9.13;;
66143;SDS011;52947;50.842;6.084;2022-12-04T08:31:28;19.45;;;8.90;;
66143;SDS011;52947;50.842;6.084;2022-12-04T08:33:59;16.90;;;9.02;;
66143;SDS011;52947;50.842;6.084;2022-12-04T08:36:28;16.38;;;9.43;;
66143;SDS011;52947;50.842;6.084;2022-12-04T08:38:56;14.02;;;8.00;;
66143;SDS011;52947;50.842;6.084;2022-12-04T08:41:24;14.75;;;8.25;;
66143;SDS011;52947;50.842;6.084;2022-12-04T08:43:53;16.10;;;9.85;;
66143;SDS011;52947;50.842;6.084;2022-12-04T08:46:24;16.33;;;10.00;;
66143;SDS011;52947;50.842;6.084;2022-12-04T08:48:53;16.40;;;9.40;;
66143;SDS011;52947;50.842;6.084;2022-12-04T08:51:22;15.57;;;9.17;;
66143;SDS011;52947;50.842;6.084;2022-12-04T08:56:19;15.90;;;9.45;;
66143;SDS011;52947;50.842;6.084;2022-12-04T08:58:47;13.05;;;8.02;;
66143;SDS011;52947;50.842;6.084;2022-12-04T09:01:15;14.65;;;7.57;;
66143;SDS011;52947;50.842;6.084;2022-12-04T09:03:45;16.40;;;9.97;;
66143;SDS011;52947;50.842;6.084;2022-12-04T09:06:14;16.90;;;10.02;;
66143;SDS011;52947;50.842;6.084;2022-12-04T09:08:42;13.13;;;7.70;;
66143;SDS011;52947;50.842;6.084;2022-12-04T09:11:10;15.05;;;7.93;;
66143;SDS011;52947;50.842;6.084;2022-12-04T09:13:40;16.45;;;9.75;;
66143;SDS011;52947;50.842;6.084;2022-12-04T09:16:09;16.23;;;9.38;;
66143;SDS011;52947;50.842;6.084;2022-12-04T09:18:39;16.02;;;9.95;;
66143;SDS011;52947;50.842;6.084;2022-12-04T09:21:09;18.23;;;10.90;;
66143;SDS011;52947;50.842;6.084;2022-12-04T09:23:38;14.93;;;9.15;;
66143;SDS011;52947;50.842;6.084;2022-12-04T09:26:16;16.35;;;9.98;;
66143;SDS011;52947;50.842;6.084;2022-12-04T09:28:47;13.55;;;8.52;;
66143;SDS011;52947;50.842;6.084;2022-12-04T09:31:15;14.55;;;8.77;;
66143;SDS011;52947;50.842;6.084;2022-12-04T09:33:44;14.82;;;8.65;;
66143;SDS011;52947;50.842;6.084;2022-12-04T09:36:13;14.55;;;8.05;;
66143;SDS011;52947;50.842;6.084;2022-12-04T09:38:42;15.02;;;8.73;;
66143;SDS011;52947;50.842;6.084;2022-12-04T09:41:17;15.10;;;9.02;;
66143;SDS011;52947;50.842;6.084;2022-12-04T09:43:54;14.75;;;8.60;;
66143;SDS011;52947;50.842;6.084;2022-12-04T09:46:25;16.73;;;9.55;;
66143;SDS011;52947;50.842;6.084;2022-12-04T09:49:02;17.15;;;9.52;;
66143;SDS011;52947;50.842;6.084;2022-12-04T09:51:38;16.30;;;8.48;;
66143;SDS011;52947;50.842;6.084;2022-12-04T09:54:14;16.90;;;9.50;;
66143;SDS011;52947;50.842;6.084;2022-12-04T09:56:45;17.70;;;9.90;;
66143;SDS011;52947;50.842;6.084;2022-12-04T09:59:22;17.20;;;11.10;;
66143;SDS011;52947;50.842;6.084;2022-12-04T10:01:54;19.83;;;11.15;;
66143;SDS011;52947;50.842;6.084;2022-12-04T10:04:26;18.98;;;10.75;;
66143;SDS011;52947;50.842;6.084;2022-12-04T10:06:56;17.42;;;9.75;;
66143;SDS011;52947;50.842;6.084;2022-12-04T10:09:29;17.83;;;9.57;;
66143;SDS011;52947;50.842;6.084;2022-12-04T10:12:07;16.40;;;9.25;;
66143;SDS011;52947;50.842;6.084;2022-12-04T10:14:45;16.67;;;9.23;;
66143;SDS011;52947;50.842;6.084;2022-12-04T10:20:07;19.42;;;10.70;;
66143;SDS011;52947;50.842;6.084;2022-12-04T10:22:48;23.23;;;10.40;;
66143;SDS011;52947;50.842;6.084;2022-12-04T10:25:25;16.58;;;9.57;;
66143;SDS011;52947;50.842;6.084;2022-12-04T10:27:54;19.15;;;9.85;;
66143;SDS011;52947;50.842;6.084;2022-12-04T10:30:27;16.85;;;9.60;;
66143;SDS011;52947;50.842;6.084;2022-12-04T10:32:58;14.50;;;8.70;;
66143;SDS011;52947;50.842;6.084;2022-12-04T10:35:30;18.33;;;9.65;;
66143;SDS011;52947;50.842;6.084;2022-12-04T10:38:03;18.35;;;10.63;;
66143;SDS011;52947;50.842;6.084;2022-12-04T10:40:39;17.40;;;10.25;;
66143;SDS011;52947;50.842;6.084;2022-12-04T10:43:17;17.90;;;9.93;;
66143;SDS011;52947;50.842;6.084;2022-12-04T10:45:53;17.05;;;9.02;;
66143;SDS011;52947;50.842;6.084;2022-12-04T10:48:22;19.05;;;11.02;;
66143;SDS011;52947;50.842;6.084;2022-12-04T10:50:52;16.10;;;9.30;;
66143;SDS011;52947;50.842;6.084;2022-12-04T10:53:24;17.70;;;9.43;;
66143;SDS011;52947;50.842;6.084;2022-12-04T10:56:06;14.38;;;9.25;;
66143;SDS011;52947;50.842;6.084;2022-12-04T10:58:35;17.85;;;9.57;;
66143;SDS011;52947;50.842;6.084;2022-12-04T11:01:04;18.92;;;10.55;;
66143;SDS011;52947;50.842;6.084;2022-12-04T11:03:33;19.13;;;9.77;;
66143;SDS011;52947;50.842;6.084;2022-12-04T11:06:02;19.77;;;10.00;;
66143;SDS011;52947;50.842;6.084;2022-12-04T11:08:34;17.67;;;10.13;;
66143;SDS011;52947;50.842;6.084;2022-12-04T11:11:05;17.48;;;9.07;;
66143;SDS011;52947;50.842;6.084;2022-12-04T11:13:36;22.15;;;10.55;;
66143;SDS011;52947;50.842;6.084;2022-12-04T11:16:05;17.20;;;10.50;;
66143;SDS011;52947;50.842;6.084;2022-12-04T11:18:34;16.50;;;9.00;;
66143;SDS011;52947;50.842;6.084;2022-12-04T11:21:14;16.98;;;9.75;;
66143;SDS011;52947;50.842;6.084;2022-12-04T11:23:47;17.55;;;10.05;;
66143;SDS011;52947;50.842;6.084;2022-12-04T11:26:16;17.25;;;9.50;;
66143;SDS011;52947;50.842;6.084;2022-12-04T11:28:55;20.98;;;10.82;;
66143;SDS011;52947;50.842;6.084;2022-12-04T11:31:27;19.40;;;10.68;;
66143;SDS011;52947;50.842;6.084;2022-12-04T11:33:56;26.23;;;12.65;;
66143;SDS011;52947;50.842;6.084;2022-12-04T11:36:27;19.55;;;11.77;;
66143;SDS011;52947;50.842;6.084;2022-12-04T11:39:04;21.60;;;10.90;;
66143;SDS011;52947;50.842;6.084;2022-12-04T11:41:34;19.23;;;11.35;;
66143;SDS011;52947;50.842;6.084;2022-12-04T11:44:04;16.65;;;9.73;;
66143;SDS011;52947;50.842;6.084;2022-12-04T11:46:32;19.95;;;11.70;;
66143;SDS011;52947;50.842;6.084;2022-12-04T11:49:00;21.33;;;11.40;;
66143;SDS011;52947;50.842;6.084;2022-12-04T11:51:36;22.07;;;12.23;;
66143;SDS011;52947;50.842;6.084;2022-12-04T11:54:17;21.38;;;11.88;;
66143;SDS011;52947;50.842;6.084;2022-12-04T11:56:57;23.90;;;12.18;;
66143;SDS011;52947;50.842;6.084;2022-12-04T11:59:39;20.90;;;12.10;;
66143;SDS011;52947;50.842;6.084;2022-12-04T12:02:23;24.27;;;13.68;;
66143;SDS011;52947;50.842;6.084;2022-12-04T12:05:15;22.10;;;12.25;;
66143;SDS011;52947;50.842;6.084;2022-12-04T12:07:51;21.85;;;12.07;;
66143;SDS011;52947;50.842;6.084;2022-12-04T12:10:30;23.05;;;13.77;;
66143;SDS011;52947;50.842;6.084;2022-12-04T12:13:11;21.08;;;12.82;;
66143;SDS011;52947;50.842;6.084;2022-12-04T12:15:55;21.08;;;11.23;;
66143;SDS011;52947;50.842;6.084;2022-12-04T12:18:39;21.88;;;12.75;;
66143;SDS011;52947;50.842;6.084;2022-12-04T12:21:21;21.63;;;14.27;;
66143;SDS011;52947;50.842;6.084;2022-12-04T12:24:04;23.60;;;14.40;;
66143;SDS011;52947;50.842;6.084;2022-12-04T12:26:43;22.00;;;13.65;;
66143;SDS011;52947;50.842;6.084;2022-12-04T12:29:20;23.90;;;13.18;;
66143;SDS011;52947;50.842;6.084;2022-12-04T12:32:07;25.88;;;14.30;;
66143;SDS011;52947;50.842;6.084;2022-12-04T12:34:43;23.77;;;12.20;;
66143;SDS011;52947;50.842;6.084;2022-12-04T12:37:15;24.25;;;13.45;;
66143;SDS011;52947;50.842;6.084;2022-12-04T12:39:49;22.73;;;13.10;;
66143;SDS011;52947;50.842;6.084;2022-12-04T12:42:27;23.75;;;12.88;;
66143;SDS011;52947;50.842;6.084;2022-12-04T12:45:00;23.42;;;13.57;;
66143;SDS011;52947;50.842;6.084;2022-12-04T12:47:35;22.15;;;13.60;;
66143;SDS011;52947;50.842;6.084;2022-12-04T12:50:09;22.20;;;13.65;;
66143;SDS011;52947;50.842;6.084;2022-12-04T12:52:42;23.65;;;12.52;;
66143;SDS011;52947;50.842;6.084;2022-12-04T12:55:15;20.45;;;12.25;;
66143;SDS011;52947;50.842;6.084;2022-12-04T12:57:48;21.20;;;12.10;;
66143;SDS011;52947;50.842;6.084;2022-12-04T13:00:23;22.17;;;12.70;;
66143;SDS011;52947;50.842;6.084;2022-12-04T13:02:52;23.00;;;12.68;;
66143;SDS011;52947;50.842;6.084;2022-12-04T13:05:25;23.77;;;12.80;;
66143;SDS011;52947;50.842;6.084;2022-12-04T13:07:57;21.00;;;12.57;;
66143;SDS011;52947;50.842;6.084;2022-12-04T13:10:34;23.45;;;13.30;;
66143;SDS011;52947;50.842;6.084;2022-12-04T13:13:09;24.35;;;13.82;;
66143;SDS011;52947;50.842;6.084;2022-12-04T13:15:43;21.10;;;12.88;;
66143;SDS011;52947;50.842;6.084;2022-12-04T13:18:16;22.02;;;13.20;;
66143;SDS011;52947;50.842;6.084;2022-12-04T13:20:51;20.35;;;12.40;;
66143;SDS011;52947;50.842;6.084;2022-12-04T13:23:26;21.52;;;12.93;;
66143;SDS011;52947;50.842;6.084;2022-12-04T13:26:13;19.80;;;11.82;;
66143;SDS011;52947;50.842;6.084;2022-12-04T13:28:51;22.70;;;12.18;;
66143;SDS011;52947;50.842;6.084;2022-12-04T13:31:25;21.00;;;13.35;;
66143;SDS011;52947;50.842;6.084;2022-12-04T13:37:26;23.00;;;13.50;;
66143;SDS011;52947;50.842;6.084;2022-12-04T13:40:08;21.10;;;11.65;;
66143;SDS011;52947;50.842;6.084;2022-12-04T13:45:48;22.40;;;12.82;;
66143;SDS011;52947;50.842;6.084;2022-12-04T13:48:25;20.25;;;12.48;;
66143;SDS011;52947;50.842;6.084;2022-12-04T13:54:18;19.27;;;12.30;;
66143;SDS011;52947;50.842;6.084;2022-12-04T13:56:48;24.75;;;15.60;;
66143;SDS011;52947;50.842;6.084;2022-12-04T13:59:19;21.17;;;13.82;;
66143;SDS011;52947;50.842;6.084;2022-12-04T14:01:50;25.20;;;13.10;;
66143;SDS011;52947;50.842;6.084;2022-12-04T14:04:22;19.85;;;12.32;;
66143;SDS011;52947;50.842;6.084;2022-12-04T14:06:51;22.10;;;12.15;;
66143;SDS011;52947;50.842;6.084;2022-12-04T14:09:24;22.45;;;12.93;;
66143;SDS011;52947;50.842;6.084;2022-12-04T14:11:56;18.92;;;11.05;;
66143;SDS011;52947;50.842;6.084;2022-12-04T14:14:27;23.27;;;11.20;;
66143;SDS011;52947;50.842;6.084;2022-12-04T14:16:58;21.80;;;11.73;;
66143;SDS011;52947;50.842;6.084;2022-12-04T14:19:30;19.63;;;11.60;;
66143;SDS011;52947;50.842;6.084;2022-12-04T14:22:00;20.35;;;11.10;;
66143;SDS011;52947;50.842;6.084;2022-12-04T14:24:29;18.83;;;11.23;;
66143;SDS011;52947;50.842;6.084;2022-12-04T14:27:01;20.25;;;11.63;;
66143;SDS011;52947;50.842;6.084;2022-12-04T14:29:43;16.65;;;10.23;;
66143;SDS011;52947;50.842;6.084;2022-12-04T14:32:16;18.83;;;10.38;;
66143;SDS011;52947;50.842;6.084;2022-12-04T14:34:48;22.58;;;11.90;;
66143;SDS011;52947;50.842;6.084;2022-12-04T14:37:18;22.20;;;13.52;;
66143;SDS011;52947;50.842;6.084;2022-12-04T14:39:50;22.15;;;13.48;;
66143;SDS011;52947;50.842;6.084;2022-12-04T14:42:21;20.30;;;13.25;;
66143;SDS011;52947;50.842;6.084;2022-12-04T14:44:51;22.58;;;13.95;;
66143;SDS011;52947;50.842;6.084;2022-12-04T14:47:30;22.27;;;13.90;;
66143;SDS011;52947;50.842;6.084;2022-12-04T14:50:12;26.83;;;16.67;;
66143;SDS011;52947;50.842;6.084;2022-12-04T14:52:49;27.52;;;16.08;;
66143;SDS011;52947;50.842;6.084;2022-12-04T14:55:23;27.30;;;16.45;;
66143;SDS011;52947;50.842;6.084;2022-12-04T14:57:58;25.90;;;16.35;;
66143;SDS011;52947;50.842;6.084;2022-12-04T15:00:50;29.13;;;17.13;;
66143;SDS011;52947;50.842;6.084;2022-12-04T15:03:21;30.80;;;16.67;;
66143;SDS011;52947;50.842;6.084;2022-12-04T15:05:50;29.85;;;17.70;;
66143;SDS011;52947;50.842;6.084;2022-12-04T15:08:19;30.73;;;19.33;;
66143;SDS011;52947;50.842;6.084;2022-12-04T15:10:47;27.40;;;15.63;;
66143;SDS011;52947;50.842;6.084;2022-12-04T15:13:34;26.23;;;15.98;;
66143;SDS011;52947;50.842;6.084;2022-12-04T15:18:36;30.30;;;17.40;;
66143;SDS011;52947;50.842;6.084;2022-12-04T15:21:05;28.77;;;16.27;;
66143;SDS011;52947;50.842;6.084;2022-12-04T15:23:38;28.55;;;16.67;;
66143;SDS011;52947;50.842;6.084;2022-12-04T15:26:08;26.17;;;14.63;;